sensor_id;sensor_type;location;lat;lon;timestamp;temperature;humidity
21169;DHT22;10742;51.816;8.662;2023-04-19T00:00:52;14.90;82.10
21169;DHT22;10742;51.816;8.662;2023-04-19T00:04:14;14.90;81.90
21169;DHT22;10742;51.816;8.662;2023-04-19T00:07:35;14.80;81.70
21169;DHT22;10742;51.816;8.662;2023-04-19T00:10:57;14.80;81.80
21169;DHT22;10742;51.816;8.662;2023-04-19T00:14:18;14.80;81.70
21169;DHT22;10742;51.816;8.662;2023-04-19T00:17:39;14.80;81.80
21169;DHT22;10742;51.816;8.662;2023-04-19T00:21:02;14.80;81.70
21169;DHT22;10742;51.816;8.662;2023-04-19T00:24:23;14.80;81.60
21169;DHT22;10742;51.816;8.662;2023-04-19T00:27:25;14.70;81.50
21169;DHT22;10742;51.816;8.662;2023-04-19T00:30:28;14.70;81.40
21169;DHT22;10742;51.816;8.662;2023-04-19T00:33:32;14.70;81.30
21169;DHT22;10742;51.816;8.662;2023-04-19T00:36:35;14.70;81.20
21169;DHT22;10742;51.816;8.662;2023-04-19T00:39:37;14.70;81.20
21169;DHT22;10742;51.816;8.662;2023-04-19T00:42:40;14.60;81.00
21169;DHT22;10742;51.816;8.662;2023-04-19T00:45:43;14.60;80.90
21169;DHT22;10742;51.816;8.662;2023-04-19T00:48:47;14.60;80.60
21169;DHT22;10742;51.816;8.662;2023-04-19T00:51:51;14.60;80.40
21169;DHT22;10742;51.816;8.662;2023-04-19T00:54:54;14.60;80.40
21169;DHT22;10742;51.816;8.662;2023-04-19T00:57:59;14.50;80.20
21169;DHT22;10742;51.816;8.662;2023-04-19T01:01:01;14.50;80.10
21169;DHT22;10742;51.816;8.662;2023-04-19T01:04:04;14.40;79.80
21169;DHT22;10742;51.816;8.662;2023-04-19T01:07:07;14.30;79.40
21169;DHT22;10742;51.816;8.662;2023-04-19T01:10:10;14.30;79.60
21169;DHT22;10742;51.816;8.662;2023-04-19T01:13:13;14.20;79.40
21169;DHT22;10742;51.816;8.662;2023-04-19T01:16:15;14.20;79.60
21169;DHT22;10742;51.816;8.662;2023-04-19T01:19:17;14.20;79.60
21169;DHT22;10742;51.816;8.662;2023-04-19T01:22:20;14.10;79.50
21169;DHT22;10742;51.816;8.662;2023-04-19T01:25:24;14.10;79.30
21169;DHT22;10742;51.816;8.662;2023-04-19T01:28:27;14.10;79.30
21169;DHT22;10742;51.816;8.662;2023-04-19T01:31:30;14.00;78.80
21169;DHT22;10742;51.816;8.662;2023-04-19T01:34:32;14.00;78.70
21169;DHT22;10742;51.816;8.662;2023-04-19T01:37:35;13.90;78.70
21169;DHT22;10742;51.816;8.662;2023-04-19T01:40:38;13.90;78.70
21169;DHT22;10742;51.816;8.662;2023-04-19T01:43:40;13.90;78.60
21169;DHT22;10742;51.816;8.662;2023-04-19T01:46:43;13.90;78.40
21169;DHT22;10742;51.816;8.662;2023-04-19T01:49:47;13.90;78.40
21169;DHT22;10742;51.816;8.662;2023-04-19T01:52:50;13.80;78.30
21169;DHT22;10742;51.816;8.662;2023-04-19T01:55:53;13.80;78.20
21169;DHT22;10742;51.816;8.662;2023-04-19T01:58:56;13.80;78.20
21169;DHT22;10742;51.816;8.662;2023-04-19T02:01:58;13.80;78.10
21169;DHT22;10742;51.816;8.662;2023-04-19T02:05:01;13.80;78.10
21169;DHT22;10742;51.816;8.662;2023-04-19T02:08:03;13.80;78.10
21169;DHT22;10742;51.816;8.662;2023-04-19T02:11:10;13.80;78.10
21169;DHT22;10742;51.816;8.662;2023-04-19T02:14:12;13.80;77.80
21169;DHT22;10742;51.816;8.662;2023-04-19T02:17:15;13.90;78.10
21169;DHT22;10742;51.816;8.662;2023-04-19T02:20:18;13.80;77.80
21169;DHT22;10742;51.816;8.662;2023-04-19T02:23:20;13.90;77.90
21169;DHT22;10742;51.816;8.662;2023-04-19T02:26:23;13.90;77.80
21169;DHT22;10742;51.816;8.662;2023-04-19T02:29:25;13.90;77.90
21169;DHT22;10742;51.816;8.662;2023-04-19T02:32:28;13.90;77.90
21169;DHT22;10742;51.816;8.662;2023-04-19T02:35:30;13.90;77.80
21169;DHT22;10742;51.816;8.662;2023-04-19T02:38:33;13.90;77.70
21169;DHT22;10742;51.816;8.662;2023-04-19T02:41:35;14.00;77.70
21169;DHT22;10742;51.816;8.662;2023-04-19T02:44:39;14.00;77.50
21169;DHT22;10742;51.816;8.662;2023-04-19T02:47:41;14.00;77.40
21169;DHT22;10742;51.816;8.662;2023-04-19T02:50:44;13.90;77.30
21169;DHT22;10742;51.816;8.662;2023-04-19T02:53:46;13.90;77.00
21169;DHT22;10742;51.816;8.662;2023-04-19T02:56:49;13.90;76.50
21169;DHT22;10742;51.816;8.662;2023-04-19T02:59:51;13.80;76.50
21169;DHT22;10742;51.816;8.662;2023-04-19T03:02:54;13.70;76.40
21169;DHT22;10742;51.816;8.662;2023-04-19T03:05:57;13.70;76.30
21169;DHT22;10742;51.816;8.662;2023-04-19T03:09:01;13.60;76.30
21169;DHT22;10742;51.816;8.662;2023-04-19T03:12:05;13.50;76.30
21169;DHT22;10742;51.816;8.662;2023-04-19T03:15:09;13.40;76.50
21169;DHT22;10742;51.816;8.662;2023-04-19T03:18:11;13.30;76.60
21169;DHT22;10742;51.816;8.662;2023-04-19T03:21:16;13.30;76.50
21169;DHT22;10742;51.816;8.662;2023-04-19T03:24:31;13.30;76.30
21169;DHT22;10742;51.816;8.662;2023-04-19T03:27:47;13.20;75.70
21169;DHT22;10742;51.816;8.662;2023-04-19T03:30:55;13.20;75.70
21169;DHT22;10742;51.816;8.662;2023-04-19T03:33:57;13.20;75.50
21169;DHT22;10742;51.816;8.662;2023-04-19T03:37:05;13.10;75.00
21169;DHT22;10742;51.816;8.662;2023-04-19T03:40:08;13.10;74.40
21169;DHT22;10742;51.816;8.662;2023-04-19T03:43:11;13.10;74.10
21169;DHT22;10742;51.816;8.662;2023-04-19T03:46:14;13.10;73.70
21169;DHT22;10742;51.816;8.662;2023-04-19T03:49:17;13.10;73.20
21169;DHT22;10742;51.816;8.662;2023-04-19T03:52:25;13.00;73.00
21169;DHT22;10742;51.816;8.662;2023-04-19T03:55:28;13.00;72.70
21169;DHT22;10742;51.816;8.662;2023-04-19T03:58:32;12.90;72.40
21169;DHT22;10742;51.816;8.662;2023-04-19T04:01:40;12.80;72.30
21169;DHT22;10742;51.816;8.662;2023-04-19T04:04:43;12.80;72.10
21169;DHT22;10742;51.816;8.662;2023-04-19T04:07:46;12.70;71.70
21169;DHT22;10742;51.816;8.662;2023-04-19T04:10:48;12.70;71.80
21169;DHT22;10742;51.816;8.662;2023-04-19T04:13:51;12.60;71.70
21169;DHT22;10742;51.816;8.662;2023-04-19T04:16:59;12.60;71.30
21169;DHT22;10742;51.816;8.662;2023-04-19T04:20:01;12.50;70.70
21169;DHT22;10742;51.816;8.662;2023-04-19T04:23:05;12.40;70.60
21169;DHT22;10742;51.816;8.662;2023-04-19T04:26:09;12.40;70.30
21169;DHT22;10742;51.816;8.662;2023-04-19T04:29:35;12.30;69.70
21169;DHT22;10742;51.816;8.662;2023-04-19T04:32:40;12.20;69.60
21169;DHT22;10742;51.816;8.662;2023-04-19T04:35:43;12.10;69.50
21169;DHT22;10742;51.816;8.662;2023-04-19T04:38:52;12.00;69.40
21169;DHT22;10742;51.816;8.662;2023-04-19T04:41:55;12.00;69.30
21169;DHT22;10742;51.816;8.662;2023-04-19T04:45:01;11.90;69.30
21169;DHT22;10742;51.816;8.662;2023-04-19T04:48:06;11.90;69.30
21169;DHT22;10742;51.816;8.662;2023-04-19T04:51:10;11.80;69.20
21169;DHT22;10742;51.816;8.662;2023-04-19T04:54:15;11.80;69.40
21169;DHT22;10742;51.816;8.662;2023-04-19T04:57:20;11.80;69.40
21169;DHT22;10742;51.816;8.662;2023-04-19T05:00:23;11.70;69.30
21169;DHT22;10742;51.816;8.662;2023-04-19T05:03:35;11.70;69.30
21169;DHT22;10742;51.816;8.662;2023-04-19T05:06:41;11.70;69.30
21169;DHT22;10742;51.816;8.662;2023-04-19T05:09:47;11.70;69.30
21169;DHT22;10742;51.816;8.662;2023-04-19T05:12:54;11.70;69.20
21169;DHT22;10742;51.816;8.662;2023-04-19T05:15:57;11.70;69.30
21169;DHT22;10742;51.816;8.662;2023-04-19T05:19:00;11.70;69.40
21169;DHT22;10742;51.816;8.662;2023-04-19T05:22:07;11.70;69.60
21169;DHT22;10742;51.816;8.662;2023-04-19T05:25:12;11.60;69.50
21169;DHT22;10742;51.816;8.662;2023-04-19T05:28:15;11.60;69.40
21169;DHT22;10742;51.816;8.662;2023-04-19T05:31:30;11.60;69.50
21169;DHT22;10742;51.816;8.662;2023-04-19T05:34:44;11.60;69.60
21169;DHT22;10742;51.816;8.662;2023-04-19T05:37:49;11.60;69.90
21169;DHT22;10742;51.816;8.662;2023-04-19T05:40:52;11.50;70.00
21169;DHT22;10742;51.816;8.662;2023-04-19T05:43:54;11.50;70.00
21169;DHT22;10742;51.816;8.662;2023-04-19T05:46:58;11.50;70.10
21169;DHT22;10742;51.816;8.662;2023-04-19T05:50:23;11.50;70.30
21169;DHT22;10742;51.816;8.662;2023-04-19T05:53:45;11.50;70.50
21169;DHT22;10742;51.816;8.662;2023-04-19T05:56:48;11.50;70.50
21169;DHT22;10742;51.816;8.662;2023-04-19T05:59:50;11.50;70.60
21169;DHT22;10742;51.816;8.662;2023-04-19T06:02:58;11.50;70.00
21169;DHT22;10742;51.816;8.662;2023-04-19T06:06:01;11.50;70.00
21169;DHT22;10742;51.816;8.662;2023-04-19T06:09:04;11.50;73.30
21169;DHT22;10742;51.816;8.662;2023-04-19T06:12:08;11.60;76.80
21169;DHT22;10742;51.816;8.662;2023-04-19T06:15:10;11.70;75.40
21169;DHT22;10742;51.816;8.662;2023-04-19T06:18:13;11.80;75.00
21169;DHT22;10742;51.816;8.662;2023-04-19T06:21:16;12.00;75.00
21169;DHT22;10742;51.816;8.662;2023-04-19T06:24:18;12.30;75.00
21169;DHT22;10742;51.816;8.662;2023-04-19T06:27:21;12.40;74.40
21169;DHT22;10742;51.816;8.662;2023-04-19T06:30:23;12.70;73.20
21169;DHT22;10742;51.816;8.662;2023-04-19T06:33:26;12.90;72.90
21169;DHT22;10742;51.816;8.662;2023-04-19T06:36:28;13.10;72.90
21169;DHT22;10742;51.816;8.662;2023-04-19T06:39:31;13.30;72.20
21169;DHT22;10742;51.816;8.662;2023-04-19T06:42:34;13.50;72.00
21169;DHT22;10742;51.816;8.662;2023-04-19T06:45:36;13.70;71.00
21169;DHT22;10742;51.816;8.662;2023-04-19T06:48:39;13.90;69.50
21169;DHT22;10742;51.816;8.662;2023-04-19T06:51:41;13.90;69.10
21169;DHT22;10742;51.816;8.662;2023-04-19T06:54:50;14.00;69.30
21169;DHT22;10742;51.816;8.662;2023-04-19T06:57:53;14.10;68.60
21169;DHT22;10742;51.816;8.662;2023-04-19T07:00:55;14.20;69.70
21169;DHT22;10742;51.816;8.662;2023-04-19T07:03:57;14.30;67.20
21169;DHT22;10742;51.816;8.662;2023-04-19T07:07:00;14.40;66.30
21169;DHT22;10742;51.816;8.662;2023-04-19T07:10:03;14.40;66.90
21169;DHT22;10742;51.816;8.662;2023-04-19T07:13:05;14.50;67.20
21169;DHT22;10742;51.816;8.662;2023-04-19T07:16:08;14.60;66.50
21169;DHT22;10742;51.816;8.662;2023-04-19T07:19:11;14.60;64.70
21169;DHT22;10742;51.816;8.662;2023-04-19T07:22:13;14.60;64.70
21169;DHT22;10742;51.816;8.662;2023-04-19T07:25:16;14.50;64.30
21169;DHT22;10742;51.816;8.662;2023-04-19T07:28:19;14.50;62.70
21169;DHT22;10742;51.816;8.662;2023-04-19T07:31:21;14.40;61.60
21169;DHT22;10742;51.816;8.662;2023-04-19T07:34:26;14.30;62.50
21169;DHT22;10742;51.816;8.662;2023-04-19T07:37:29;14.30;62.90
21169;DHT22;10742;51.816;8.662;2023-04-19T07:40:31;14.30;62.10
21169;DHT22;10742;51.816;8.662;2023-04-19T07:43:34;14.20;61.20
21169;DHT22;10742;51.816;8.662;2023-04-19T07:46:37;14.20;61.80
21169;DHT22;10742;51.816;8.662;2023-04-19T07:49:40;14.10;62.30
21169;DHT22;10742;51.816;8.662;2023-04-19T07:52:42;14.00;62.10
21169;DHT22;10742;51.816;8.662;2023-04-19T07:55:45;14.00;62.70
21169;DHT22;10742;51.816;8.662;2023-04-19T07:58:47;14.10;62.70
21169;DHT22;10742;51.816;8.662;2023-04-19T08:01:52;14.10;62.60
21169;DHT22;10742;51.816;8.662;2023-04-19T08:04:54;14.20;62.40
21169;DHT22;10742;51.816;8.662;2023-04-19T08:07:58;14.30;62.20
21169;DHT22;10742;51.816;8.662;2023-04-19T08:11:01;14.40;61.70
21169;DHT22;10742;51.816;8.662;2023-04-19T08:14:04;14.50;61.60
21169;DHT22;10742;51.816;8.662;2023-04-19T08:17:12;14.60;61.00
21169;DHT22;10742;51.816;8.662;2023-04-19T08:20:23;14.80;58.80
21169;DHT22;10742;51.816;8.662;2023-04-19T08:23:25;14.80;59.60
21169;DHT22;10742;51.816;8.662;2023-04-19T08:26:30;14.90;59.80
21169;DHT22;10742;51.816;8.662;2023-04-19T08:29:33;15.00;60.00
21169;DHT22;10742;51.816;8.662;2023-04-19T08:32:36;15.10;59.00
21169;DHT22;10742;51.816;8.662;2023-04-19T08:35:38;15.20;58.20
21169;DHT22;10742;51.816;8.662;2023-04-19T08:38:44;15.20;58.20
21169;DHT22;10742;51.816;8.662;2023-04-19T08:41:48;15.20;58.10
21169;DHT22;10742;51.816;8.662;2023-04-19T08:44:55;15.20;58.60
21169;DHT22;10742;51.816;8.662;2023-04-19T08:48:15;15.30;58.40
21169;DHT22;10742;51.816;8.662;2023-04-19T08:51:18;15.40;58.00
21169;DHT22;10742;51.816;8.662;2023-04-19T08:54:21;15.50;56.70
21169;DHT22;10742;51.816;8.662;2023-04-19T08:57:26;15.50;56.50
21169;DHT22;10742;51.816;8.662;2023-04-19T09:00:32;15.60;56.20
21169;DHT22;10742;51.816;8.662;2023-04-19T09:03:35;15.70;54.90
21169;DHT22;10742;51.816;8.662;2023-04-19T09:06:48;15.80;53.90
21169;DHT22;10742;51.816;8.662;2023-04-19T09:10:08;15.80;53.60
21169;DHT22;10742;51.816;8.662;2023-04-19T09:13:11;15.90;53.20
21169;DHT22;10742;51.816;8.662;2023-04-19T09:16:24;16.00;53.90
21169;DHT22;10742;51.816;8.662;2023-04-19T09:19:44;16.10;52.80
21169;DHT22;10742;51.816;8.662;2023-04-19T09:23:03;16.20;52.50
21169;DHT22;10742;51.816;8.662;2023-04-19T09:26:07;16.20;51.70
21169;DHT22;10742;51.816;8.662;2023-04-19T09:29:23;16.20;52.30
21169;DHT22;10742;51.816;8.662;2023-04-19T09:32:27;16.20;51.90
21169;DHT22;10742;51.816;8.662;2023-04-19T09:35:43;16.30;51.60
21169;DHT22;10742;51.816;8.662;2023-04-19T09:38:47;16.40;51.20
21169;DHT22;10742;51.816;8.662;2023-04-19T09:41:51;16.40;51.20
21169;DHT22;10742;51.816;8.662;2023-04-19T09:44:58;16.50;50.50
21169;DHT22;10742;51.816;8.662;2023-04-19T09:48:07;16.50;49.60
21169;DHT22;10742;51.816;8.662;2023-04-19T09:51:09;16.50;48.80
21169;DHT22;10742;51.816;8.662;2023-04-19T09:54:16;16.50;49.80
21169;DHT22;10742;51.816;8.662;2023-04-19T09:57:19;16.50;49.20
21169;DHT22;10742;51.816;8.662;2023-04-19T10:00:22;16.50;49.50
21169;DHT22;10742;51.816;8.662;2023-04-19T10:03:25;16.60;49.20
21169;DHT22;10742;51.816;8.662;2023-04-19T10:06:30;16.70;49.40
21169;DHT22;10742;51.816;8.662;2023-04-19T10:09:41;16.80;48.60
21169;DHT22;10742;51.816;8.662;2023-04-19T10:12:52;16.90;48.90
21169;DHT22;10742;51.816;8.662;2023-04-19T10:15:59;17.00;48.90
21169;DHT22;10742;51.816;8.662;2023-04-19T10:19:08;17.10;47.40
21169;DHT22;10742;51.816;8.662;2023-04-19T10:22:12;17.20;46.80
21169;DHT22;10742;51.816;8.662;2023-04-19T10:25:16;17.20;46.60
21169;DHT22;10742;51.816;8.662;2023-04-19T10:28:18;17.20;43.60
21169;DHT22;10742;51.816;8.662;2023-04-19T10:31:21;17.20;45.30
21169;DHT22;10742;51.816;8.662;2023-04-19T10:34:39;17.10;45.10
21169;DHT22;10742;51.816;8.662;2023-04-19T10:38:04;17.10;44.40
21169;DHT22;10742;51.816;8.662;2023-04-19T10:41:09;17.20;44.50
21169;DHT22;10742;51.816;8.662;2023-04-19T10:44:17;17.20;45.70
21169;DHT22;10742;51.816;8.662;2023-04-19T10:47:44;17.20;45.70
21169;DHT22;10742;51.816;8.662;2023-04-19T10:51:01;17.20;43.40
21169;DHT22;10742;51.816;8.662;2023-04-19T10:54:05;17.30;44.30
21169;DHT22;10742;51.816;8.662;2023-04-19T10:57:08;17.30;44.20
21169;DHT22;10742;51.816;8.662;2023-04-19T11:00:19;17.30;44.00
21169;DHT22;10742;51.816;8.662;2023-04-19T11:09:52;17.40;43.30
21169;DHT22;10742;51.816;8.662;2023-04-19T11:12:55;17.40;44.20
21169;DHT22;10742;51.816;8.662;2023-04-19T11:15:58;17.40;44.00
21169;DHT22;10742;51.816;8.662;2023-04-19T11:19:00;17.40;44.50
21169;DHT22;10742;51.816;8.662;2023-04-19T11:22:03;17.40;45.10
21169;DHT22;10742;51.816;8.662;2023-04-19T11:28:08;17.60;44.00
21169;DHT22;10742;51.816;8.662;2023-04-19T11:31:10;17.60;44.70
21169;DHT22;10742;51.816;8.662;2023-04-19T11:34:13;17.60;43.50
21169;DHT22;10742;51.816;8.662;2023-04-19T11:37:16;17.60;44.30
21169;DHT22;10742;51.816;8.662;2023-04-19T11:40:19;17.60;44.70
21169;DHT22;10742;51.816;8.662;2023-04-19T11:43:22;17.60;44.00
21169;DHT22;10742;51.816;8.662;2023-04-19T11:46:24;17.60;44.00
21169;DHT22;10742;51.816;8.662;2023-04-19T11:49:29;17.60;44.50
21169;DHT22;10742;51.816;8.662;2023-04-19T11:52:34;17.60;45.00
21169;DHT22;10742;51.816;8.662;2023-04-19T11:55:37;17.60;45.30
21169;DHT22;10742;51.816;8.662;2023-04-19T11:58:46;17.70;45.20
21169;DHT22;10742;51.816;8.662;2023-04-19T12:01:52;17.80;43.50
21169;DHT22;10742;51.816;8.662;2023-04-19T12:04:54;17.90;43.70
21169;DHT22;10742;51.816;8.662;2023-04-19T12:08:04;17.90;43.50
21169;DHT22;10742;51.816;8.662;2023-04-19T12:11:08;17.90;43.20
21169;DHT22;10742;51.816;8.662;2023-04-19T12:14:13;17.80;42.10
21169;DHT22;10742;51.816;8.662;2023-04-19T12:17:16;17.80;41.30
21169;DHT22;10742;51.816;8.662;2023-04-19T12:20:48;17.70;41.90
21169;DHT22;10742;51.816;8.662;2023-04-19T12:23:56;17.60;42.80
21169;DHT22;10742;51.816;8.662;2023-04-19T12:26:58;17.60;42.40
21169;DHT22;10742;51.816;8.662;2023-04-19T12:30:01;17.60;42.60
21169;DHT22;10742;51.816;8.662;2023-04-19T12:33:06;17.70;43.10
21169;DHT22;10742;51.816;8.662;2023-04-19T12:36:08;17.70;43.10
21169;DHT22;10742;51.816;8.662;2023-04-19T12:39:11;17.80;43.00
21169;DHT22;10742;51.816;8.662;2023-04-19T12:42:14;17.80;43.10
21169;DHT22;10742;51.816;8.662;2023-04-19T12:45:17;17.90;43.50
21169;DHT22;10742;51.816;8.662;2023-04-19T12:48:20;18.00;43.30
21169;DHT22;10742;51.816;8.662;2023-04-19T12:51:23;18.00;42.80
21169;DHT22;10742;51.816;8.662;2023-04-19T12:54:25;18.10;42.80
21169;DHT22;10742;51.816;8.662;2023-04-19T12:57:27;18.10;42.00
21169;DHT22;10742;51.816;8.662;2023-04-19T13:00:30;18.10;42.80
21169;DHT22;10742;51.816;8.662;2023-04-19T13:03:33;18.10;42.50
21169;DHT22;10742;51.816;8.662;2023-04-19T13:06:37;18.10;42.50
21169;DHT22;10742;51.816;8.662;2023-04-19T13:09:41;18.10;42.90
21169;DHT22;10742;51.816;8.662;2023-04-19T13:12:43;18.20;42.30
21169;DHT22;10742;51.816;8.662;2023-04-19T13:15:45;18.20;41.80
21169;DHT22;10742;51.816;8.662;2023-04-19T13:18:48;18.30;41.30
21169;DHT22;10742;51.816;8.662;2023-04-19T13:21:52;18.30;41.80
21169;DHT22;10742;51.816;8.662;2023-04-19T13:24:54;18.30;40.70
21169;DHT22;10742;51.816;8.662;2023-04-19T13:27:57;18.30;41.50
21169;DHT22;10742;51.816;8.662;2023-04-19T13:30:59;18.30;41.70
21169;DHT22;10742;51.816;8.662;2023-04-19T13:34:01;18.40;41.50
21169;DHT22;10742;51.816;8.662;2023-04-19T13:37:04;18.50;40.10
21169;DHT22;10742;51.816;8.662;2023-04-19T13:40:07;18.50;40.90
21169;DHT22;10742;51.816;8.662;2023-04-19T13:43:19;18.50;38.70
21169;DHT22;10742;51.816;8.662;2023-04-19T13:46:22;18.50;39.60
21169;DHT22;10742;51.816;8.662;2023-04-19T13:49:24;18.50;39.90
21169;DHT22;10742;51.816;8.662;2023-04-19T13:52:27;18.50;39.70
21169;DHT22;10742;51.816;8.662;2023-04-19T13:55:30;18.50;39.80
21169;DHT22;10742;51.816;8.662;2023-04-19T13:58:32;18.50;39.10
21169;DHT22;10742;51.816;8.662;2023-04-19T14:01:35;18.50;40.00
21169;DHT22;10742;51.816;8.662;2023-04-19T14:04:38;18.50;39.30
21169;DHT22;10742;51.816;8.662;2023-04-19T14:07:40;18.60;39.40
21169;DHT22;10742;51.816;8.662;2023-04-19T14:10:43;18.50;39.00
21169;DHT22;10742;51.816;8.662;2023-04-19T14:13:45;18.50;39.70
21169;DHT22;10742;51.816;8.662;2023-04-19T14:16:49;18.60;39.90
21169;DHT22;10742;51.816;8.662;2023-04-19T14:19:52;18.60;39.20
21169;DHT22;10742;51.816;8.662;2023-04-19T14:22:54;18.60;39.60
21169;DHT22;10742;51.816;8.662;2023-04-19T14:25:59;18.50;39.20
21169;DHT22;10742;51.816;8.662;2023-04-19T14:29:03;18.50;39.70
21169;DHT22;10742;51.816;8.662;2023-04-19T14:32:06;18.50;38.50
21169;DHT22;10742;51.816;8.662;2023-04-19T14:35:22;18.40;39.30
21169;DHT22;10742;51.816;8.662;2023-04-19T14:38:25;18.40;38.90
21169;DHT22;10742;51.816;8.662;2023-04-19T14:41:27;18.30;38.10
21169;DHT22;10742;51.816;8.662;2023-04-19T14:44:30;18.20;38.50
21169;DHT22;10742;51.816;8.662;2023-04-19T14:47:33;18.10;39.00
21169;DHT22;10742;51.816;8.662;2023-04-19T14:50:35;18.00;39.20
21169;DHT22;10742;51.816;8.662;2023-04-19T14:53:38;17.90;38.70
21169;DHT22;10742;51.816;8.662;2023-04-19T14:56:40;17.80;38.30
21169;DHT22;10742;51.816;8.662;2023-04-19T14:59:43;17.80;39.00
21169;DHT22;10742;51.816;8.662;2023-04-19T15:02:45;17.70;39.50
21169;DHT22;10742;51.816;8.662;2023-04-19T15:05:48;17.60;39.70
21169;DHT22;10742;51.816;8.662;2023-04-19T15:08:50;17.60;40.10
21169;DHT22;10742;51.816;8.662;2023-04-19T15:11:53;17.50;40.00
21169;DHT22;10742;51.816;8.662;2023-04-19T15:14:55;17.50;40.70
21169;DHT22;10742;51.816;8.662;2023-04-19T15:17:58;17.40;40.50
21169;DHT22;10742;51.816;8.662;2023-04-19T15:21:04;17.20;40.70
21169;DHT22;10742;51.816;8.662;2023-04-19T15:24:07;17.20;41.10
21169;DHT22;10742;51.816;8.662;2023-04-19T15:27:09;17.30;41.10
21169;DHT22;10742;51.816;8.662;2023-04-19T15:30:12;17.40;41.20
21169;DHT22;10742;51.816;8.662;2023-04-19T15:33:14;17.40;41.30
21169;DHT22;10742;51.816;8.662;2023-04-19T15:36:17;17.30;41.40
21169;DHT22;10742;51.816;8.662;2023-04-19T15:39:19;17.40;42.10
21169;DHT22;10742;51.816;8.662;2023-04-19T15:42:22;17.40;41.40
21169;DHT22;10742;51.816;8.662;2023-04-19T15:45:24;17.30;41.10
21169;DHT22;10742;51.816;8.662;2023-04-19T15:48:27;17.30;41.40
21169;DHT22;10742;51.816;8.662;2023-04-19T15:51:29;17.20;41.40
21169;DHT22;10742;51.816;8.662;2023-04-19T15:54:32;17.20;41.50
21169;DHT22;10742;51.816;8.662;2023-04-19T15:57:35;17.20;41.50
21169;DHT22;10742;51.816;8.662;2023-04-19T16:00:38;17.10;41.50
21169;DHT22;10742;51.816;8.662;2023-04-19T16:03:40;17.00;41.10
21169;DHT22;10742;51.816;8.662;2023-04-19T16:06:43;17.00;41.60
21169;DHT22;10742;51.816;8.662;2023-04-19T16:09:45;16.90;41.60
21169;DHT22;10742;51.816;8.662;2023-04-19T16:12:48;16.80;41.80
21169;DHT22;10742;51.816;8.662;2023-04-19T16:15:50;16.70;41.80
21169;DHT22;10742;51.816;8.662;2023-04-19T16:18:52;16.60;43.10
21169;DHT22;10742;51.816;8.662;2023-04-19T16:21:55;16.60;43.40
21169;DHT22;10742;51.816;8.662;2023-04-19T16:24:58;16.60;43.10
21169;DHT22;10742;51.816;8.662;2023-04-19T16:28:00;16.50;42.90
21169;DHT22;10742;51.816;8.662;2023-04-19T16:31:03;16.60;42.90
21169;DHT22;10742;51.816;8.662;2023-04-19T16:34:05;16.60;43.00
21169;DHT22;10742;51.816;8.662;2023-04-19T16:37:08;16.60;43.30
21169;DHT22;10742;51.816;8.662;2023-04-19T16:40:11;16.60;43.30
21169;DHT22;10742;51.816;8.662;2023-04-19T16:43:14;16.60;43.00
21169;DHT22;10742;51.816;8.662;2023-04-19T16:46:16;16.60;42.90
21169;DHT22;10742;51.816;8.662;2023-04-19T16:49:19;16.60;43.00
21169;DHT22;10742;51.816;8.662;2023-04-19T16:52:27;16.50;43.10
21169;DHT22;10742;51.816;8.662;2023-04-19T16:55:31;16.50;43.20
21169;DHT22;10742;51.816;8.662;2023-04-19T16:58:33;16.50;43.30
21169;DHT22;10742;51.816;8.662;2023-04-19T17:01:35;16.40;43.40
21169;DHT22;10742;51.816;8.662;2023-04-19T17:04:38;16.40;43.70
21169;DHT22;10742;51.816;8.662;2023-04-19T17:07:42;16.40;43.90
21169;DHT22;10742;51.816;8.662;2023-04-19T17:10:44;16.40;43.90
21169;DHT22;10742;51.816;8.662;2023-04-19T17:13:47;16.50;44.10
21169;DHT22;10742;51.816;8.662;2023-04-19T17:16:49;16.50;44.20
21169;DHT22;10742;51.816;8.662;2023-04-19T17:19:52;16.60;44.40
21169;DHT22;10742;51.816;8.662;2023-04-19T17:22:57;16.60;44.40
21169;DHT22;10742;51.816;8.662;2023-04-19T17:26:00;16.60;44.70
21169;DHT22;10742;51.816;8.662;2023-04-19T17:29:03;16.70;44.90
21169;DHT22;10742;51.816;8.662;2023-04-19T17:32:06;16.70;44.40
21169;DHT22;10742;51.816;8.662;2023-04-19T17:35:10;16.70;43.90
21169;DHT22;10742;51.816;8.662;2023-04-19T17:38:12;16.70;44.10
21169;DHT22;10742;51.816;8.662;2023-04-19T17:41:15;16.60;44.20
21169;DHT22;10742;51.816;8.662;2023-04-19T17:44:17;16.60;44.40
21169;DHT22;10742;51.816;8.662;2023-04-19T17:47:20;16.50;44.40
21169;DHT22;10742;51.816;8.662;2023-04-19T17:50:22;16.40;44.50
21169;DHT22;10742;51.816;8.662;2023-04-19T17:53:25;16.30;44.50
21169;DHT22;10742;51.816;8.662;2023-04-19T17:56:28;16.30;44.70
21169;DHT22;10742;51.816;8.662;2023-04-19T17:59:30;16.20;45.20
21169;DHT22;10742;51.816;8.662;2023-04-19T18:02:33;16.20;45.30
21169;DHT22;10742;51.816;8.662;2023-04-19T18:05:41;16.10;45.80
21169;DHT22;10742;51.816;8.662;2023-04-19T18:08:44;16.00;45.70
21169;DHT22;10742;51.816;8.662;2023-04-19T18:11:47;16.00;45.20
21169;DHT22;10742;51.816;8.662;2023-04-19T18:14:49;15.90;45.10
21169;DHT22;10742;51.816;8.662;2023-04-19T18:17:52;15.90;45.80
21169;DHT22;10742;51.816;8.662;2023-04-19T18:20:54;15.80;45.80
21169;DHT22;10742;51.816;8.662;2023-04-19T18:23:57;15.70;45.90
21169;DHT22;10742;51.816;8.662;2023-04-19T18:26:59;15.80;45.80
21169;DHT22;10742;51.816;8.662;2023-04-19T18:30:05;15.70;45.60
21169;DHT22;10742;51.816;8.662;2023-04-19T18:33:08;15.70;45.60
21169;DHT22;10742;51.816;8.662;2023-04-19T18:36:10;15.60;45.30
21169;DHT22;10742;51.816;8.662;2023-04-19T18:39:12;15.50;45.30
21169;DHT22;10742;51.816;8.662;2023-04-19T18:42:15;15.50;45.30
21169;DHT22;10742;51.816;8.662;2023-04-19T18:45:18;15.40;45.30
21169;DHT22;10742;51.816;8.662;2023-04-19T18:48:21;15.40;45.40
21169;DHT22;10742;51.816;8.662;2023-04-19T18:51:24;15.30;45.30
21169;DHT22;10742;51.816;8.662;2023-04-19T18:54:27;15.30;45.40
21169;DHT22;10742;51.816;8.662;2023-04-19T18:57:30;15.20;45.40
21169;DHT22;10742;51.816;8.662;2023-04-19T19:00:35;15.10;45.40
21169;DHT22;10742;51.816;8.662;2023-04-19T19:03:37;15.10;45.50
21169;DHT22;10742;51.816;8.662;2023-04-19T19:06:55;15.00;45.40
21169;DHT22;10742;51.816;8.662;2023-04-19T19:09:59;14.90;46.20
21169;DHT22;10742;51.816;8.662;2023-04-19T19:13:03;14.90;45.60
21169;DHT22;10742;51.816;8.662;2023-04-19T19:16:05;14.80;45.70
21169;DHT22;10742;51.816;8.662;2023-04-19T19:19:08;14.70;45.80
21169;DHT22;10742;51.816;8.662;2023-04-19T19:22:10;14.60;46.00
21169;DHT22;10742;51.816;8.662;2023-04-19T19:25:20;14.60;46.10
21169;DHT22;10742;51.816;8.662;2023-04-19T19:28:22;14.50;46.10
21169;DHT22;10742;51.816;8.662;2023-04-19T19:31:25;14.50;46.20
21169;DHT22;10742;51.816;8.662;2023-04-19T19:34:27;14.40;46.30